sensor_id;sensor_type;location;lat;lon;timestamp;P1;durP1;ratioP1;P2;durP2;ratioP2
50367;SDS011;36281;34.132;-118.018;2023-05-07T00:00:08;1.55;;;1.45;;
50367;SDS011;36281;34.132;-118.018;2023-05-07T00:02:39;4.38;;;1.73;;
50367;SDS011;36281;34.132;-118.018;2023-05-07T00:05:08;3.20;;;1.50;;
50367;SDS011;36281;34.132;-118.018;2023-05-07T00:07:38;2.95;;;1.70;;
50367;SDS011;36281;34.132;-118.018;2023-05-07T00:10:09;2.40;;;1.60;;
50367;SDS011;36281;34.132;-118.018;2023-05-07T00:12:40;1.60;;;1.40;;
50367;SDS011;36281;34.132;-118.018;2023-05-07T00:15:09;2.20;;;1.70;;
50367;SDS011;36281;34.132;-118.018;2023-05-07T00:17:39;3.13;;;1.70;;
50367;SDS011;36281;34.132;-118.018;2023-05-07T00:20:08;2.97;;;1.35;;
50367;SDS011;36281;34.132;-118.018;2023-05-07T00:22:40;3.22;;;1.80;;
50367;SDS011;36281;34.132;-118.018;2023-05-07T00:25:09;2.38;;;1.60;;
50367;SDS011;36281;34.132;-118.018;2023-05-07T00:27:38;1.95;;;1.60;;
50367;SDS011;36281;34.132;-118.018;2023-05-07T00:30:07;1.50;;;1.40;;
50367;SDS011;36281;34.132;-118.018;2023-05-07T00:32:38;2.17;;;1.70;;
50367;SDS011;36281;34.132;-118.018;2023-05-07T00:35:07;1.65;;;1.55;;
50367;SDS011;36281;34.132;-118.018;2023-05-07T00:37:37;1.80;;;1.60;;
50367;SDS011;36281;34.132;-118.018;2023-05-07T00:40:08;1.85;;;1.40;;
50367;SDS011;36281;34.132;-118.018;2023-05-07T00:42:38;2.28;;;1.83;;
50367;SDS011;36281;34.132;-118.018;2023-05-07T00:45:07;3.03;;;1.50;;
50367;SDS011;36281;34.132;-118.018;2023-05-07T00:47:38;3.45;;;1.63;;
50367;SDS011;36281;34.132;-118.018;2023-05-07T00:50:08;3.25;;;1.75;;
50367;SDS011;36281;34.132;-118.018;2023-05-07T00:52:42;1.85;;;1.55;;
50367;SDS011;36281;34.132;-118.018;2023-05-07T00:55:11;1.95;;;1.40;;
50367;SDS011;36281;34.132;-118.018;2023-05-07T00:57:42;2.35;;;1.60;;
50367;SDS011;36281;34.132;-118.018;2023-05-07T01:00:11;2.58;;;1.75;;
50367;SDS011;36281;34.132;-118.018;2023-05-07T01:02:41;2.58;;;1.45;;
50367;SDS011;36281;34.132;-118.018;2023-05-07T01:05:12;1.92;;;1.45;;
50367;SDS011;36281;34.132;-118.018;2023-05-07T01:07:44;2.30;;;1.40;;
50367;SDS011;36281;34.132;-118.018;2023-05-07T01:10:14;1.80;;;1.25;;
50367;SDS011;36281;34.132;-118.018;2023-05-07T01:12:43;2.00;;;1.42;;
50367;SDS011;36281;34.132;-118.018;2023-05-07T01:15:15;1.98;;;1.60;;
50367;SDS011;36281;34.132;-118.018;2023-05-07T01:17:44;3.40;;;1.60;;
50367;SDS011;36281;34.132;-118.018;2023-05-07T01:20:14;1.88;;;1.60;;
50367;SDS011;36281;34.132;-118.018;2023-05-07T01:22:45;3.53;;;1.85;;
50367;SDS011;36281;34.132;-118.018;2023-05-07T01:25:14;2.63;;;1.83;;
50367;SDS011;36281;34.132;-118.018;2023-05-07T01:27:44;3.60;;;1.60;;
50367;SDS011;36281;34.132;-118.018;2023-05-07T01:30:13;3.58;;;1.50;;
50367;SDS011;36281;34.132;-118.018;2023-05-07T01:32:43;1.90;;;1.55;;
50367;SDS011;36281;34.132;-118.018;2023-05-07T01:35:19;1.75;;;1.60;;
50367;SDS011;36281;34.132;-118.018;2023-05-07T01:37:52;1.80;;;1.50;;
50367;SDS011;36281;34.132;-118.018;2023-05-07T01:40:22;3.25;;;1.63;;
50367;SDS011;36281;34.132;-118.018;2023-05-07T01:42:52;2.65;;;1.80;;
50367;SDS011;36281;34.132;-118.018;2023-05-07T01:45:22;1.95;;;1.60;;
50367;SDS011;36281;34.132;-118.018;2023-05-07T01:47:51;2.00;;;1.55;;
50367;SDS011;36281;34.132;-118.018;2023-05-07T01:50:22;2.15;;;1.60;;
50367;SDS011;36281;34.132;-118.018;2023-05-07T01:52:54;1.70;;;1.50;;
50367;SDS011;36281;34.132;-118.018;2023-05-07T01:55:24;1.92;;;1.70;;
50367;SDS011;36281;34.132;-118.018;2023-05-07T01:57:53;2.95;;;2.00;;
50367;SDS011;36281;34.132;-118.018;2023-05-07T02:00:22;2.92;;;1.90;;
50367;SDS011;36281;34.132;-118.018;2023-05-07T02:02:51;2.00;;;1.80;;
50367;SDS011;36281;34.132;-118.018;2023-05-07T02:05:21;2.97;;;1.63;;
50367;SDS011;36281;34.132;-118.018;2023-05-07T02:07:50;4.47;;;1.58;;
50367;SDS011;36281;34.132;-118.018;2023-05-07T02:10:21;2.00;;;1.77;;
50367;SDS011;36281;34.132;-118.018;2023-05-07T02:12:50;2.30;;;1.70;;
50367;SDS011;36281;34.132;-118.018;2023-05-07T02:15:19;2.25;;;1.70;;
50367;SDS011;36281;34.132;-118.018;2023-05-07T02:18:00;3.40;;;1.95;;
50367;SDS011;36281;34.132;-118.018;2023-05-07T02:20:31;4.32;;;1.95;;
50367;SDS011;36281;34.132;-118.018;2023-05-07T02:23:00;2.65;;;1.67;;
50367;SDS011;36281;34.132;-118.018;2023-05-07T02:25:30;2.08;;;1.67;;
50367;SDS011;36281;34.132;-118.018;2023-05-07T02:27:59;2.75;;;1.70;;
50367;SDS011;36281;34.132;-118.018;2023-05-07T02:30:28;3.03;;;2.28;;
50367;SDS011;36281;34.132;-118.018;2023-05-07T02:32:57;2.22;;;1.90;;
50367;SDS011;36281;34.132;-118.018;2023-05-07T02:35:27;1.98;;;1.80;;
50367;SDS011;36281;34.132;-118.018;2023-05-07T02:37:56;2.15;;;1.63;;
50367;SDS011;36281;34.132;-118.018;2023-05-07T02:40:27;1.88;;;1.55;;
50367;SDS011;36281;34.132;-118.018;2023-05-07T02:42:58;2.95;;;1.80;;
50367;SDS011;36281;34.132;-118.018;2023-05-07T02:45:27;1.80;;;1.70;;
50367;SDS011;36281;34.132;-118.018;2023-05-07T02:47:56;3.47;;;1.90;;
50367;SDS011;36281;34.132;-118.018;2023-05-07T02:50:25;3.53;;;2.00;;
50367;SDS011;36281;34.132;-118.018;2023-05-07T02:52:54;5.35;;;2.10;;
50367;SDS011;36281;34.132;-118.018;2023-05-07T02:55:23;3.17;;;2.03;;
50367;SDS011;36281;34.132;-118.018;2023-05-07T02:57:52;2.97;;;2.25;;
50367;SDS011;36281;34.132;-118.018;2023-05-07T03:00:24;3.88;;;1.92;;
50367;SDS011;36281;34.132;-118.018;2023-05-07T03:02:53;3.40;;;2.08;;
50367;SDS011;36281;34.132;-118.018;2023-05-07T03:05:22;3.38;;;1.95;;
50367;SDS011;36281;34.132;-118.018;2023-05-07T03:07:51;2.08;;;1.80;;
50367;SDS011;36281;34.132;-118.018;2023-05-07T03:10:20;2.58;;;2.15;;
50367;SDS011;36281;34.132;-118.018;2023-05-07T03:12:49;2.85;;;2.20;;
50367;SDS011;36281;34.132;-118.018;2023-05-07T03:15:18;2.60;;;2.03;;
50367;SDS011;36281;34.132;-118.018;2023-05-07T03:17:49;3.10;;;2.22;;
50367;SDS011;36281;34.132;-118.018;2023-05-07T03:20:18;2.85;;;1.90;;
50367;SDS011;36281;34.132;-118.018;2023-05-07T03:22:48;2.45;;;2.00;;
50367;SDS011;36281;34.132;-118.018;2023-05-07T03:25:17;4.10;;;2.30;;
50367;SDS011;36281;34.132;-118.018;2023-05-07T03:27:46;3.88;;;2.33;;
50367;SDS011;36281;34.132;-118.018;2023-05-07T03:30:15;4.25;;;2.30;;
50367;SDS011;36281;34.132;-118.018;2023-05-07T03:32:45;3.88;;;2.40;;
50367;SDS011;36281;34.132;-118.018;2023-05-07T03:35:16;3.42;;;2.25;;
50367;SDS011;36281;34.132;-118.018;2023-05-07T03:37:45;5.10;;;2.47;;
50367;SDS011;36281;34.132;-118.018;2023-05-07T03:40:14;4.03;;;2.35;;
50367;SDS011;36281;34.132;-118.018;2023-05-07T03:42:43;3.60;;;2.20;;
50367;SDS011;36281;34.132;-118.018;2023-05-07T03:45:12;3.65;;;2.38;;
50367;SDS011;36281;34.132;-118.018;2023-05-07T03:47:41;3.42;;;2.30;;
50367;SDS011;36281;34.132;-118.018;2023-05-07T03:50:11;3.83;;;2.38;;
50367;SDS011;36281;34.132;-118.018;2023-05-07T03:52:41;3.13;;;2.40;;
50367;SDS011;36281;34.132;-118.018;2023-05-07T03:55:10;4.70;;;2.53;;
50367;SDS011;36281;34.132;-118.018;2023-05-07T03:57:40;3.17;;;2.08;;
50367;SDS011;36281;34.132;-118.018;2023-05-07T04:00:09;4.53;;;2.42;;
50367;SDS011;36281;34.132;-118.018;2023-05-07T04:02:39;2.83;;;2.17;;
50367;SDS011;36281;34.132;-118.018;2023-05-07T04:05:09;3.97;;;2.50;;
50367;SDS011;36281;34.132;-118.018;2023-05-07T04:07:38;4.18;;;2.30;;
50367;SDS011;36281;34.132;-118.018;2023-05-07T04:10:09;3.25;;;2.30;;
50367;SDS011;36281;34.132;-118.018;2023-05-07T04:12:39;4.68;;;2.58;;
50367;SDS011;36281;34.132;-118.018;2023-05-07T04:15:08;2.95;;;2.33;;
50367;SDS011;36281;34.132;-118.018;2023-05-07T04:17:38;3.72;;;2.33;;
50367;SDS011;36281;34.132;-118.018;2023-05-07T04:20:08;2.65;;;2.20;;
50367;SDS011;36281;34.132;-118.018;2023-05-07T04:22:38;4.25;;;2.30;;
50367;SDS011;36281;34.132;-118.018;2023-05-07T04:25:09;3.92;;;2.38;;
50367;SDS011;36281;34.132;-118.018;2023-05-07T04:27:38;4.70;;;2.47;;
50367;SDS011;36281;34.132;-118.018;2023-05-07T04:30:08;3.80;;;2.60;;
50367;SDS011;36281;34.132;-118.018;2023-05-07T04:32:38;5.32;;;2.50;;
50367;SDS011;36281;34.132;-118.018;2023-05-07T04:35:07;4.18;;;2.35;;
50367;SDS011;36281;34.132;-118.018;2023-05-07T04:37:36;4.50;;;2.63;;
50367;SDS011;36281;34.132;-118.018;2023-05-07T04:40:06;5.70;;;2.30;;
50367;SDS011;36281;34.132;-118.018;2023-05-07T04:42:38;4.93;;;2.35;;
50367;SDS011;36281;34.132;-118.018;2023-05-07T04:45:07;4.00;;;2.60;;
50367;SDS011;36281;34.132;-118.018;2023-05-07T04:47:38;3.63;;;2.30;;
50367;SDS011;36281;34.132;-118.018;2023-05-07T04:50:07;3.75;;;2.28;;
50367;SDS011;36281;34.132;-118.018;2023-05-07T04:52:37;7.00;;;2.60;;
50367;SDS011;36281;34.132;-118.018;2023-05-07T04:55:06;4.07;;;2.45;;
50367;SDS011;36281;34.132;-118.018;2023-05-07T04:57:37;5.95;;;2.50;;
50367;SDS011;36281;34.132;-118.018;2023-05-07T05:00:08;4.20;;;2.30;;
50367;SDS011;36281;34.132;-118.018;2023-05-07T05:02:38;5.60;;;2.75;;
50367;SDS011;36281;34.132;-118.018;2023-05-07T05:05:07;4.50;;;2.45;;
50367;SDS011;36281;34.132;-118.018;2023-05-07T05:07:37;3.38;;;2.53;;
50367;SDS011;36281;34.132;-118.018;2023-05-07T05:10:06;5.05;;;2.67;;
50367;SDS011;36281;34.132;-118.018;2023-05-07T05:12:37;4.47;;;2.45;;
50367;SDS011;36281;34.132;-118.018;2023-05-07T05:15:07;4.40;;;2.40;;
50367;SDS011;36281;34.132;-118.018;2023-05-07T05:17:38;4.25;;;2.40;;
50367;SDS011;36281;34.132;-118.018;2023-05-07T05:20:07;2.90;;;2.50;;
50367;SDS011;36281;34.132;-118.018;2023-05-07T05:22:38;4.13;;;2.83;;
50367;SDS011;36281;34.132;-118.018;2023-05-07T05:25:08;5.10;;;2.33;;
50367;SDS011;36281;34.132;-118.018;2023-05-07T05:27:39;4.88;;;2.40;;
50367;SDS011;36281;34.132;-118.018;2023-05-07T05:30:08;5.25;;;2.70;;
50367;SDS011;36281;34.132;-118.018;2023-05-07T05:32:38;5.35;;;2.58;;
50367;SDS011;36281;34.132;-118.018;2023-05-07T05:35:08;4.55;;;2.75;;
50367;SDS011;36281;34.132;-118.018;2023-05-07T05:37:37;8.00;;;3.08;;
50367;SDS011;36281;34.132;-118.018;2023-05-07T05:40:06;3.83;;;2.38;;
50367;SDS011;36281;34.132;-118.018;2023-05-07T05:42:36;4.60;;;2.67;;
50367;SDS011;36281;34.132;-118.018;2023-05-07T05:45:07;4.38;;;2.50;;
50367;SDS011;36281;34.132;-118.018;2023-05-07T05:47:37;5.30;;;2.22;;
50367;SDS011;36281;34.132;-118.018;2023-05-07T05:50:07;4.57;;;2.60;;
50367;SDS011;36281;34.132;-118.018;2023-05-07T05:52:37;3.40;;;2.55;;
50367;SDS011;36281;34.132;-118.018;2023-05-07T05:55:06;4.75;;;2.70;;
50367;SDS011;36281;34.132;-118.018;2023-05-07T05:57:36;4.40;;;2.50;;
50367;SDS011;36281;34.132;-118.018;2023-05-07T06:00:09;3.78;;;2.65;;
50367;SDS011;36281;34.132;-118.018;2023-05-07T06:02:39;6.30;;;3.15;;
50367;SDS011;36281;34.132;-118.018;2023-05-07T06:05:10;5.03;;;2.95;;
50367;SDS011;36281;34.132;-118.018;2023-05-07T06:07:39;5.93;;;2.90;;
50367;SDS011;36281;34.132;-118.018;2023-05-07T06:10:08;2.95;;;2.53;;
50367;SDS011;36281;34.132;-118.018;2023-05-07T06:12:40;4.32;;;3.25;;
50367;SDS011;36281;34.132;-118.018;2023-05-07T06:15:09;4.00;;;2.65;;
50367;SDS011;36281;34.132;-118.018;2023-05-07T06:17:39;5.60;;;2.95;;
50367;SDS011;36281;34.132;-118.018;2023-05-07T06:20:08;5.60;;;2.67;;
50367;SDS011;36281;34.132;-118.018;2023-05-07T06:22:38;5.03;;;2.70;;
50367;SDS011;36281;34.132;-118.018;2023-05-07T06:25:08;4.85;;;3.05;;
50367;SDS011;36281;34.132;-118.018;2023-05-07T06:27:37;4.68;;;2.80;;
50367;SDS011;36281;34.132;-118.018;2023-05-07T06:30:09;6.88;;;3.10;;
50367;SDS011;36281;34.132;-118.018;2023-05-07T06:32:39;5.18;;;3.10;;
50367;SDS011;36281;34.132;-118.018;2023-05-07T06:35:09;4.07;;;2.72;;
50367;SDS011;36281;34.132;-118.018;2023-05-07T06:37:38;6.95;;;3.17;;
50367;SDS011;36281;34.132;-118.018;2023-05-07T06:40:10;6.65;;;2.80;;
50367;SDS011;36281;34.132;-118.018;2023-05-07T06:42:40;5.53;;;3.10;;
50367;SDS011;36281;34.132;-118.018;2023-05-07T06:45:11;5.47;;;3.25;;
50367;SDS011;36281;34.132;-118.018;2023-05-07T06:47:40;4.55;;;3.40;;
50367;SDS011;36281;34.132;-118.018;2023-05-07T06:50:09;5.47;;;3.40;;
50367;SDS011;36281;34.132;-118.018;2023-05-07T06:52:38;5.05;;;3.25;;
50367;SDS011;36281;34.132;-118.018;2023-05-07T06:55:08;5.38;;;3.15;;
50367;SDS011;36281;34.132;-118.018;2023-05-07T06:57:38;5.15;;;3.15;;
50367;SDS011;36281;34.132;-118.018;2023-05-07T07:00:10;5.60;;;3.40;;
50367;SDS011;36281;34.132;-118.018;2023-05-07T07:02:40;4.68;;;3.20;;
50367;SDS011;36281;34.132;-118.018;2023-05-07T07:05:09;5.03;;;3.05;;
50367;SDS011;36281;34.132;-118.018;2023-05-07T07:07:39;5.43;;;2.97;;
50367;SDS011;36281;34.132;-118.018;2023-05-07T07:10:08;4.22;;;3.20;;
50367;SDS011;36281;34.132;-118.018;2023-05-07T07:12:38;4.38;;;3.15;;
50367;SDS011;36281;34.132;-118.018;2023-05-07T07:15:07;5.15;;;3.10;;
50367;SDS011;36281;34.132;-118.018;2023-05-07T07:17:38;4.85;;;3.33;;
50367;SDS011;36281;34.132;-118.018;2023-05-07T07:20:08;4.20;;;3.25;;
50367;SDS011;36281;34.132;-118.018;2023-05-07T07:22:38;7.07;;;3.08;;
50367;SDS011;36281;34.132;-118.018;2023-05-07T07:25:08;4.53;;;3.13;;
50367;SDS011;36281;34.132;-118.018;2023-05-07T07:27:38;5.38;;;3.40;;
50367;SDS011;36281;34.132;-118.018;2023-05-07T07:30:07;5.38;;;3.22;;
50367;SDS011;36281;34.132;-118.018;2023-05-07T07:32:39;4.75;;;3.00;;
50367;SDS011;36281;34.132;-118.018;2023-05-07T07:35:08;5.03;;;2.97;;
50367;SDS011;36281;34.132;-118.018;2023-05-07T07:37:37;7.05;;;3.28;;
50367;SDS011;36281;34.132;-118.018;2023-05-07T07:40:07;4.75;;;3.00;;
50367;SDS011;36281;34.132;-118.018;2023-05-07T07:42:37;5.75;;;3.10;;
50367;SDS011;36281;34.132;-118.018;2023-05-07T07:45:07;4.07;;;2.80;;
50367;SDS011;36281;34.132;-118.018;2023-05-07T07:47:38;5.00;;;3.13;;
50367;SDS011;36281;34.132;-118.018;2023-05-07T07:50:08;5.93;;;3.13;;
50367;SDS011;36281;34.132;-118.018;2023-05-07T07:52:45;4.93;;;2.90;;
50367;SDS011;36281;34.132;-118.018;2023-05-07T07:55:14;5.10;;;3.22;;
50367;SDS011;36281;34.132;-118.018;2023-05-07T07:57:48;8.02;;;3.55;;
50367;SDS011;36281;34.132;-118.018;2023-05-07T08:00:18;6.13;;;3.38;;
50367;SDS011;36281;34.132;-118.018;2023-05-07T08:02:49;4.85;;;3.30;;
50367;SDS011;36281;34.132;-118.018;2023-05-07T08:05:18;4.63;;;2.97;;
50367;SDS011;36281;34.132;-118.018;2023-05-07T08:07:47;5.47;;;3.20;;
50367;SDS011;36281;34.132;-118.018;2023-05-07T08:10:19;4.68;;;3.13;;
50367;SDS011;36281;34.132;-118.018;2023-05-07T08:12:49;4.85;;;2.90;;
50367;SDS011;36281;34.132;-118.018;2023-05-07T08:15:19;4.53;;;3.55;;
50367;SDS011;36281;34.132;-118.018;2023-05-07T08:17:50;6.40;;;3.22;;
50367;SDS011;36281;34.132;-118.018;2023-05-07T08:20:19;5.13;;;3.50;;
50367;SDS011;36281;34.132;-118.018;2023-05-07T08:22:48;4.82;;;3.58;;
50367;SDS011;36281;34.132;-118.018;2023-05-07T08:25:17;5.63;;;2.95;;
50367;SDS011;36281;34.132;-118.018;2023-05-07T08:27:46;5.50;;;2.75;;
50367;SDS011;36281;34.132;-118.018;2023-05-07T08:30:15;5.10;;;3.20;;
50367;SDS011;36281;34.132;-118.018;2023-05-07T08:32:45;4.95;;;3.63;;
50367;SDS011;36281;34.132;-118.018;2023-05-07T08:35:15;3.38;;;2.65;;
50367;SDS011;36281;34.132;-118.018;2023-05-07T08:37:44;7.05;;;3.20;;
50367;SDS011;36281;34.132;-118.018;2023-05-07T08:40:13;5.10;;;3.00;;
50367;SDS011;36281;34.132;-118.018;2023-05-07T08:42:43;5.32;;;3.28;;
50367;SDS011;36281;34.132;-118.018;2023-05-07T08:45:14;4.53;;;3.00;;
50367;SDS011;36281;34.132;-118.018;2023-05-07T08:47:44;3.92;;;3.08;;
50367;SDS011;36281;34.132;-118.018;2023-05-07T08:50:19;5.18;;;3.38;;
50367;SDS011;36281;34.132;-118.018;2023-05-07T08:52:50;6.78;;;3.13;;
50367;SDS011;36281;34.132;-118.018;2023-05-07T08:55:19;4.05;;;3.00;;
50367;SDS011;36281;34.132;-118.018;2023-05-07T08:57:49;4.95;;;3.22;;
50367;SDS011;36281;34.132;-118.018;2023-05-07T09:00:20;6.13;;;3.53;;
50367;SDS011;36281;34.132;-118.018;2023-05-07T09:02:49;4.50;;;3.13;;
50367;SDS011;36281;34.132;-118.018;2023-05-07T09:05:20;4.75;;;3.08;;
50367;SDS011;36281;34.132;-118.018;2023-05-07T09:07:49;5.45;;;3.47;;
50367;SDS011;36281;34.132;-118.018;2023-05-07T09:10:20;6.45;;;3.47;;
50367;SDS011;36281;34.132;-118.018;2023-05-07T09:12:49;4.53;;;3.08;;
50367;SDS011;36281;34.132;-118.018;2023-05-07T09:15:19;4.82;;;3.20;;
50367;SDS011;36281;34.132;-118.018;2023-05-07T09:17:49;4.95;;;3.10;;
50367;SDS011;36281;34.132;-118.018;2023-05-07T09:20:20;4.60;;;3.10;;
50367;SDS011;36281;34.132;-118.018;2023-05-07T09:22:49;5.60;;;3.83;;
50367;SDS011;36281;34.132;-118.018;2023-05-07T09:25:24;5.28;;;3.00;;
50367;SDS011;36281;34.132;-118.018;2023-05-07T09:27:56;3.47;;;3.10;;
50367;SDS011;36281;34.132;-118.018;2023-05-07T09:30:27;7.28;;;3.30;;
50367;SDS011;36281;34.132;-118.018;2023-05-07T09:32:57;5.10;;;2.90;;
50367;SDS011;36281;34.132;-118.018;2023-05-07T09:35:29;5.20;;;2.90;;
50367;SDS011;36281;34.132;-118.018;2023-05-07T09:37:59;4.15;;;2.90;;
50367;SDS011;36281;34.132;-118.018;2023-05-07T09:40:30;3.70;;;3.05;;
50367;SDS011;36281;34.132;-118.018;2023-05-07T09:43:08;5.30;;;3.03;;
50367;SDS011;36281;34.132;-118.018;2023-05-07T09:45:38;4.93;;;3.13;;
50367;SDS011;36281;34.132;-118.018;2023-05-07T09:48:08;4.75;;;2.88;;
50367;SDS011;36281;34.132;-118.018;2023-05-07T09:50:42;4.68;;;2.90;;
50367;SDS011;36281;34.132;-118.018;2023-05-07T09:53:16;4.25;;;2.85;;
50367;SDS011;36281;34.132;-118.018;2023-05-07T09:55:46;4.30;;;3.00;;
50367;SDS011;36281;34.132;-118.018;2023-05-07T09:58:16;4.55;;;3.03;;
50367;SDS011;36281;34.132;-118.018;2023-05-07T10:00:47;4.90;;;3.00;;
50367;SDS011;36281;34.132;-118.018;2023-05-07T10:03:17;5.32;;;2.90;;
50367;SDS011;36281;34.132;-118.018;2023-05-07T10:05:50;4.80;;;3.08;;
50367;SDS011;36281;34.132;-118.018;2023-05-07T10:08:19;4.03;;;2.70;;
50367;SDS011;36281;34.132;-118.018;2023-05-07T10:10:49;3.88;;;2.90;;
50367;SDS011;36281;34.132;-118.018;2023-05-07T10:13:18;4.47;;;3.20;;
50367;SDS011;36281;34.132;-118.018;2023-05-07T10:15:48;4.82;;;2.90;;
50367;SDS011;36281;34.132;-118.018;2023-05-07T10:18:18;4.82;;;3.33;;
50367;SDS011;36281;34.132;-118.018;2023-05-07T10:20:59;4.40;;;2.92;;
50367;SDS011;36281;34.132;-118.018;2023-05-07T10:23:35;5.53;;;3.10;;
50367;SDS011;36281;34.132;-118.018;2023-05-07T10:26:06;4.07;;;2.95;;
50367;SDS011;36281;34.132;-118.018;2023-05-07T10:28:38;5.43;;;3.13;;
50367;SDS011;36281;34.132;-118.018;2023-05-07T10:31:17;5.90;;;3.30;;
50367;SDS011;36281;34.132;-118.018;2023-05-07T10:33:58;6.80;;;3.22;;
50367;SDS011;36281;34.132;-118.018;2023-05-07T10:36:32;5.03;;;2.90;;
50367;SDS011;36281;34.132;-118.018;2023-05-07T10:39:04;5.13;;;3.42;;
50367;SDS011;36281;34.132;-118.018;2023-05-07T10:41:35;4.78;;;3.50;;
50367;SDS011;36281;34.132;-118.018;2023-05-07T10:44:04;4.05;;;3.20;;
50367;SDS011;36281;34.132;-118.018;2023-05-07T10:46:33;4.50;;;2.95;;
50367;SDS011;36281;34.132;-118.018;2023-05-07T10:49:12;4.15;;;2.83;;
50367;SDS011;36281;34.132;-118.018;2023-05-07T10:51:43;5.53;;;3.13;;
50367;SDS011;36281;34.132;-118.018;2023-05-07T10:54:21;4.30;;;3.20;;
50367;SDS011;36281;34.132;-118.018;2023-05-07T10:56:51;4.00;;;3.35;;
50367;SDS011;36281;34.132;-118.018;2023-05-07T10:59:33;3.92;;;3.17;;
50367;SDS011;36281;34.132;-118.018;2023-05-07T11:02:08;5.10;;;3.10;;
50367;SDS011;36281;34.132;-118.018;2023-05-07T11:04:38;4.43;;;3.35;;
50367;SDS011;36281;34.132;-118.018;2023-05-07T11:07:25;4.68;;;2.90;;
50367;SDS011;36281;34.132;-118.018;2023-05-07T11:10:01;5.15;;;3.28;;
50367;SDS011;36281;34.132;-118.018;2023-05-07T11:12:51;4.45;;;3.17;;
50367;SDS011;36281;34.132;-118.018;2023-05-07T11:15:40;3.83;;;3.17;;
50367;SDS011;36281;34.132;-118.018;2023-05-07T11:18:12;7.70;;;3.35;;
50367;SDS011;36281;34.132;-118.018;2023-05-07T11:20:45;5.93;;;3.25;;
50367;SDS011;36281;34.132;-118.018;2023-05-07T11:26:30;6.22;;;3.00;;
50367;SDS011;36281;34.132;-118.018;2023-05-07T11:29:10;5.82;;;2.95;;
50367;SDS011;36281;34.132;-118.018;2023-05-07T11:31:40;3.80;;;2.80;;
50367;SDS011;36281;34.132;-118.018;2023-05-07T11:34:09;5.18;;;3.28;;
50367;SDS011;36281;34.132;-118.018;2023-05-07T11:36:41;3.67;;;2.95;;
50367;SDS011;36281;34.132;-118.018;2023-05-07T11:39:28;4.32;;;3.00;;
50367;SDS011;36281;34.132;-118.018;2023-05-07T11:42:00;4.95;;;2.90;;
50367;SDS011;36281;34.132;-118.018;2023-05-07T11:44:42;4.03;;;3.20;;
50367;SDS011;36281;34.132;-118.018;2023-05-07T11:47:12;5.47;;;3.10;;
50367;SDS011;36281;34.132;-118.018;2023-05-07T11:49:47;4.63;;;3.17;;
50367;SDS011;36281;34.132;-118.018;2023-05-07T11:52:16;3.42;;;2.97;;
50367;SDS011;36281;34.132;-118.018;2023-05-07T11:54:50;4.88;;;2.88;;
50367;SDS011;36281;34.132;-118.018;2023-05-07T11:57:20;4.07;;;3.33;;
50367;SDS011;36281;34.132;-118.018;2023-05-07T11:59:52;5.18;;;3.10;;
50367;SDS011;36281;34.132;-118.018;2023-05-07T12:02:21;7.60;;;3.20;;
50367;SDS011;36281;34.132;-118.018;2023-05-07T12:04:52;6.07;;;3.13;;
50367;SDS011;36281;34.132;-118.018;2023-05-07T12:07:23;4.78;;;2.90;;
50367;SDS011;36281;34.132;-118.018;2023-05-07T12:09:54;4.15;;;3.30;;
50367;SDS011;36281;34.132;-118.018;2023-05-07T12:12:23;5.57;;;3.40;;
50367;SDS011;36281;34.132;-118.018;2023-05-07T12:14:52;5.18;;;3.50;;
50367;SDS011;36281;34.132;-118.018;2023-05-07T12:17:21;5.07;;;3.60;;
50367;SDS011;36281;34.132;-118.018;2023-05-07T12:19:50;3.97;;;3.10;;
50367;SDS011;36281;34.132;-118.018;2023-05-07T12:22:21;5.32;;;3.25;;
50367;SDS011;36281;34.132;-118.018;2023-05-07T12:24:56;4.78;;;3.45;;
50367;SDS011;36281;34.132;-118.018;2023-05-07T12:27:27;4.20;;;3.70;;
50367;SDS011;36281;34.132;-118.018;2023-05-07T12:29:57;5.97;;;3.10;;
50367;SDS011;36281;34.132;-118.018;2023-05-07T12:32:27;4.88;;;3.40;;
50367;SDS011;36281;34.132;-118.018;2023-05-07T12:34:56;4.15;;;3.42;;
50367;SDS011;36281;34.132;-118.018;2023-05-07T12:37:25;4.38;;;3.35;;
50367;SDS011;36281;34.132;-118.018;2023-05-07T12:40:06;3.65;;;3.03;;
50367;SDS011;36281;34.132;-118.018;2023-05-07T12:42:37;5.28;;;3.53;;
50367;SDS011;36281;34.132;-118.018;2023-05-07T12:45:08;6.68;;;3.80;;
50367;SDS011;36281;34.132;-118.018;2023-05-07T12:47:38;5.30;;;3.60;;
50367;SDS011;36281;34.132;-118.018;2023-05-07T12:50:07;4.22;;;3.15;;
50367;SDS011;36281;34.132;-118.018;2023-05-07T12:52:36;5.68;;;3.30;;
50367;SDS011;36281;34.132;-118.018;2023-05-07T12:55:08;4.75;;;2.95;;
50367;SDS011;36281;34.132;-118.018;2023-05-07T12:57:40;6.28;;;3.80;;
50367;SDS011;36281;34.132;-118.018;2023-05-07T13:00:10;4.93;;;3.53;;
50367;SDS011;36281;34.132;-118.018;2023-05-07T13:02:41;6.07;;;3.70;;
50367;SDS011;36281;34.132;-118.018;2023-05-07T13:05:14;5.38;;;3.30;;
50367;SDS011;36281;34.132;-118.018;2023-05-07T13:07:52;7.30;;;4.18;;
50367;SDS011;36281;34.132;-118.018;2023-05-07T13:10:24;5.88;;;3.78;;
50367;SDS011;36281;34.132;-118.018;2023-05-07T13:12:53;7.22;;;4.50;;
50367;SDS011;36281;34.132;-118.018;2023-05-07T13:15:22;5.28;;;3.75;;
50367;SDS011;36281;34.132;-118.018;2023-05-07T13:17:52;5.38;;;3.60;;
50367;SDS011;36281;34.132;-118.018;2023-05-07T13:20:21;7.65;;;4.32;;
50367;SDS011;36281;34.132;-118.018;2023-05-07T13:22:50;5.93;;;3.80;;
50367;SDS011;36281;34.132;-118.018;2023-05-07T13:25:19;8.32;;;3.72;;
50367;SDS011;36281;34.132;-118.018;2023-05-07T13:27:50;8.75;;;4.55;;
50367;SDS011;36281;34.132;-118.018;2023-05-07T13:30:35;6.03;;;3.72;;
50367;SDS011;36281;34.132;-118.018;2023-05-07T13:33:04;6.55;;;3.53;;
50367;SDS011;36281;34.132;-118.018;2023-05-07T13:35:34;6.95;;;3.55;;
50367;SDS011;36281;34.132;-118.018;2023-05-07T13:38:03;5.60;;;3.55;;
50367;SDS011;36281;34.132;-118.018;2023-05-07T13:40:32;6.35;;;3.30;;
50367;SDS011;36281;34.132;-118.018;2023-05-07T13:43:05;5.05;;;3.67;;
50367;SDS011;36281;34.132;-118.018;2023-05-07T13:45:35;4.80;;;3.90;;
50367;SDS011;36281;34.132;-118.018;2023-05-07T13:48:04;4.80;;;3.20;;
50367;SDS011;36281;34.132;-118.018;2023-05-07T13:50:34;5.65;;;3.30;;
50367;SDS011;36281;34.132;-118.018;2023-05-07T13:53:03;5.47;;;3.60;;
50367;SDS011;36281;34.132;-118.018;2023-05-07T13:55:32;4.30;;;3.55;;
50367;SDS011;36281;34.132;-118.018;2023-05-07T13:58:03;4.95;;;3.40;;
50367;SDS011;36281;34.132;-118.018;2023-05-07T14:00:33;4.80;;;3.42;;
50367;SDS011;36281;34.132;-118.018;2023-05-07T14:03:03;5.88;;;3.15;;
50367;SDS011;36281;34.132;-118.018;2023-05-07T14:05:33;4.53;;;3.10;;
50367;SDS011;36281;34.132;-118.018;2023-05-07T14:08:02;4.65;;;3.35;;
50367;SDS011;36281;34.132;-118.018;2023-05-07T14:10:32;4.70;;;3.25;;
50367;SDS011;36281;34.132;-118.018;2023-05-07T14:13:04;4.97;;;3.33;;
50367;SDS011;36281;34.132;-118.018;2023-05-07T14:15:33;4.65;;;3.22;;
50367;SDS011;36281;34.132;-118.018;2023-05-07T14:18:02;3.83;;;2.90;;
50367;SDS011;36281;34.132;-118.018;2023-05-07T14:20:32;4.97;;;2.80;;
50367;SDS011;36281;34.132;-118.018;2023-05-07T14:23:04;4.55;;;3.22;;
50367;SDS011;36281;34.132;-118.018;2023-05-07T14:25:34;3.45;;;2.80;;
50367;SDS011;36281;34.132;-118.018;2023-05-07T14:28:04;3.90;;;2.72;;
50367;SDS011;36281;34.132;-118.018;2023-05-07T14:30:34;3.88;;;2.55;;